Terminal Aerodrome Forecast
Issued by NWS

Home | Current Version | Previous Version | Text Only | Print | Product List | Glossary On
Versions: 1 2 3 4 5 6 7 8 9 10 11 12 13 14 15 16 17 18
000
FTUS41 KPBZ 240025 AAA
TAFDUJ
TAF AMD
KDUJ 240025Z 2400/2424 24007KT P6SM SCT060 BKN100
      TEMPO 2400/2403 BKN015
     FM240300 25004KT 4SM BR OVC007
     FM240900 27005KT P6SM OVC015
     FM241400 26009G15KT P6SM SCT250
     FM241600 27012G18KT P6SM BKN050=

USA.gov is the U.S. government's official web portal to all federal, state and local government web resources and services.